createdAt,value
2023-04-11T00:00:52.119Z,11.90
2023-04-11T00:03:39.650Z,11.90
2023-04-11T00:06:27.635Z,11.80
2023-04-11T00:09:16.701Z,11.90
2023-04-11T00:12:03.598Z,11.80
2023-04-11T00:14:50.133Z,11.80
2023-04-11T00:17:37.837Z,11.80
2023-04-11T00:20:24.483Z,11.80
2023-04-11T00:23:11.114Z,11.70
2023-04-11T00:25:58.795Z,11.70
2023-04-11T00:28:45.475Z,11.70
2023-04-11T00:31:31.914Z,11.60
2023-04-11T00:34:18.568Z,11.60
2023-04-11T00:37:05.879Z,11.60
2023-04-11T00:39:54.266Z,11.60
2023-04-11T00:42:42.354Z,11.50
2023-04-11T00:45:29.256Z,11.40
2023-04-11T00:48:17.221Z,11.30
2023-04-11T00:51:04.321Z,11.20
2023-04-11T00:53:51.034Z,11.40
2023-04-11T00:56:38.098Z,11.30
2023-04-11T00:59:27.659Z,11.30
2023-04-11T01:02:14.214Z,11.30
2023-04-11T01:05:01.425Z,11.20
2023-04-11T01:07:51.954Z,11.20
2023-04-11T01:10:39.288Z,11.10
2023-04-11T01:13:26.384Z,11.20
2023-04-11T01:16:15.383Z,11.20
2023-04-11T01:19:01.888Z,11.20
2023-04-11T01:21:50.951Z,11.00
2023-04-11T01:24:38.638Z,11.10
2023-04-11T01:27:25.362Z,11.10
2023-04-11T01:30:12.607Z,11.00
2023-04-11T01:32:59.235Z,11.10
2023-04-11T01:35:45.785Z,11.10
2023-04-11T01:38:32.653Z,11.10
2023-04-11T01:41:22.379Z,11.20
2023-04-11T01:44:09.089Z,11.20
2023-04-11T01:46:55.977Z,11.20
2023-04-11T01:49:43.493Z,11.20
2023-04-11T01:52:30.373Z,11.20
2023-04-11T01:55:16.884Z,11.10
2023-04-11T01:58:04.662Z,11.10
2023-04-11T02:00:51.237Z,11.10
2023-04-11T02:03:37.963Z,11.10
2023-04-11T02:06:24.627Z,10.90
2023-04-11T02:09:11.306Z,11.10
2023-04-11T02:11:57.770Z,11.10
2023-04-11T02:14:47.008Z,11.00
2023-04-11T02:17:33.660Z,11.00
2023-04-11T02:20:21.388Z,11.00
2023-04-11T02:23:08.510Z,10.90
2023-04-11T02:25:55.079Z,11.00
2023-04-11T02:28:41.992Z,11.00
2023-04-11T02:31:29.904Z,11.00
2023-04-11T02:34:16.511Z,11.00
2023-04-11T02:37:03.096Z,10.90
2023-04-11T02:39:49.426Z,10.70
2023-04-11T02:42:35.894Z,10.60
2023-04-11T02:45:22.589Z,10.60
2023-04-11T02:48:10.735Z,10.30
2023-04-11T02:50:57.454Z,9.70
2023-04-11T02:53:43.929Z,9.40
2023-04-11T02:56:30.909Z,9.60
2023-04-11T02:59:17.115Z,9.60
2023-04-11T03:02:03.815Z,9.60
2023-04-11T03:04:51.904Z,9.60
2023-04-11T03:07:40.674Z,9.50
2023-04-11T03:10:27.622Z,8.50
2023-04-11T03:13:14.175Z,9.60
2023-04-11T03:16:00.567Z,9.40
2023-04-11T03:18:47.047Z,9.40
2023-04-11T03:21:34.791Z,9.40
2023-04-11T03:24:22.384Z,9.30
2023-04-11T03:27:09.239Z,9.40
2023-04-11T03:29:55.638Z,9.40
2023-04-11T03:32:42.033Z,9.40
2023-04-11T03:35:28.489Z,9.40
2023-04-11T03:38:16.525Z,9.40
2023-04-11T03:41:03.045Z,9.50
2023-04-11T03:43:49.484Z,9.50
2023-04-11T03:46:36.105Z,9.40
2023-04-11T03:49:22.890Z,9.50
2023-04-11T03:52:11.481Z,9.60
2023-04-11T03:54:59.375Z,9.50
2023-04-11T03:57:46.324Z,9.50
2023-04-11T04:00:32.718Z,9.60
2023-04-11T04:03:19.365Z,9.50
2023-04-11T04:06:06.641Z,9.60
2023-04-11T04:08:53.094Z,9.50
2023-04-11T04:11:40.919Z,9.50
2023-04-11T04:14:27.778Z,9.50
2023-04-11T04:17:16.106Z,9.60
2023-04-11T04:20:05.434Z,9.60
2023-04-11T04:22:53.940Z,9.70
2023-04-11T04:25:42.237Z,9.70
2023-04-11T04:28:31.107Z,9.70
2023-04-11T04:31:25.723Z,9.60
2023-04-11T04:34:12.722Z,9.70
2023-04-11T04:36:59.689Z,9.60
2023-04-11T04:39:50.863Z,9.60
2023-04-11T04:42:41.228Z,9.70
2023-04-11T04:45:29.119Z,9.70
2023-04-11T04:48:17.191Z,9.70
2023-04-11T04:51:04.438Z,9.70
2023-04-11T04:53:51.238Z,9.50
2023-04-11T04:56:37.921Z,9.60
2023-04-11T04:59:24.390Z,9.60
2023-04-11T05:02:12.346Z,9.50
2023-04-11T05:05:04.068Z,9.50
2023-04-11T05:07:50.850Z,9.50
2023-04-11T05:10:37.311Z,9.60
2023-04-11T05:13:24.050Z,9.50
2023-04-11T05:16:11.045Z,9.40
2023-04-11T05:18:59.292Z,9.40
2023-04-11T05:21:45.701Z,9.40
2023-04-11T05:24:32.285Z,9.50
2023-04-11T05:27:19.411Z,9.40
2023-04-11T05:30:06.953Z,9.20
2023-04-11T05:32:53.620Z,8.90
2023-04-11T05:35:42.005Z,9.00
2023-04-11T05:38:28.939Z,9.00
2023-04-11T05:41:15.539Z,8.80
2023-04-11T05:44:01.953Z,8.70
2023-04-11T05:46:48.283Z,8.70
2023-04-11T05:49:34.890Z,8.60
2023-04-11T05:52:22.857Z,8.60
2023-04-11T05:55:11.064Z,8.60
2023-04-11T05:57:57.476Z,8.60
2023-04-11T06:00:46.026Z,8.80
2023-04-11T06:03:32.454Z,8.80
2023-04-11T06:06:19.232Z,8.80
2023-04-11T06:09:09.149Z,8.90
2023-04-11T06:11:57.530Z,8.80
2023-04-11T06:14:44.234Z,8.90
2023-04-11T06:17:31.237Z,8.90
2023-04-11T06:20:18.148Z,8.80
2023-04-11T06:23:04.822Z,8.90
2023-04-11T06:25:52.998Z,8.90
2023-04-11T06:28:39.404Z,9.00
2023-04-11T06:31:26.228Z,8.90
2023-04-11T06:34:12.922Z,8.80
2023-04-11T06:36:59.320Z,8.80
2023-04-11T06:39:45.973Z,8.90
2023-04-11T06:42:34.152Z,8.90
2023-04-11T06:45:20.850Z,9.10
2023-04-11T06:48:07.770Z,9.10
2023-04-11T06:50:54.719Z,9.10
2023-04-11T06:53:40.987Z,9.20
2023-04-11T06:56:27.495Z,9.20
2023-04-11T06:59:15.724Z,9.30
2023-04-11T07:02:02.215Z,9.30
2023-04-11T07:04:48.954Z,9.20
2023-04-11T07:07:36.382Z,9.30
2023-04-11T07:10:22.979Z,9.30
2023-04-11T07:13:09.698Z,9.40
2023-04-11T07:15:58.091Z,9.50
2023-04-11T07:18:44.779Z,9.50
2023-04-11T07:21:32.360Z,9.50
2023-04-11T07:24:21.053Z,9.50
2023-04-11T07:27:07.644Z,9.70
2023-04-11T07:29:54.024Z,9.60
2023-04-11T07:32:41.701Z,9.70
2023-04-11T07:35:29.509Z,9.60
2023-04-11T07:38:21.928Z,9.80
2023-04-11T07:41:10.112Z,9.80
2023-04-11T07:43:56.991Z,9.90
2023-04-11T07:46:43.889Z,9.80
2023-04-11T07:49:31.678Z,10.10
2023-04-11T07:52:18.210Z,9.90
2023-04-11T07:55:05.252Z,9.90
2023-04-11T07:57:52.038Z,9.80
2023-04-11T08:00:38.755Z,9.90
2023-04-11T08:03:25.382Z,10.10
2023-04-11T08:06:13.532Z,10.00
2023-04-11T08:09:00.999Z,10.10
2023-04-11T08:11:47.504Z,10.30
2023-04-11T08:14:33.994Z,10.20
2023-04-11T08:17:27.666Z,10.30
2023-04-11T08:20:15.308Z,10.30
2023-04-11T08:23:06.299Z,10.50
2023-04-11T08:25:53.084Z,10.50
2023-04-11T08:28:41.907Z,10.60
2023-04-11T08:31:29.553Z,10.60
2023-04-11T08:34:16.684Z,10.70
2023-04-11T08:37:04.909Z,10.90
2023-04-11T08:39:52.920Z,10.60
2023-04-11T08:42:39.695Z,10.90
2023-04-11T08:45:26.170Z,10.80
2023-04-11T08:48:13.202Z,11.10
2023-04-11T08:50:59.913Z,11.30
2023-04-11T08:53:46.450Z,11.20
2023-04-11T08:56:35.454Z,11.20
2023-04-11T08:59:22.272Z,11.20
2023-04-11T09:02:10.202Z,11.00
2023-04-11T09:04:57.665Z,10.90
2023-04-11T09:07:50.383Z,10.90
2023-04-11T09:10:38.151Z,10.50
2023-04-11T09:13:28.272Z,10.10
2023-04-11T09:16:16.378Z,9.50
2023-04-11T09:19:03.074Z,9.40
2023-04-11T09:21:50.539Z,9.20
2023-04-11T09:24:37.950Z,9.30
2023-04-11T09:27:26.266Z,9.40
2023-04-11T09:30:24.896Z,9.50
2023-04-11T09:33:23.466Z,9.90
2023-04-11T09:36:20.702Z,10.30
2023-04-11T09:39:20.408Z,10.50
2023-04-11T09:42:25.314Z,11.00
2023-04-11T09:45:21.094Z,11.20
2023-04-11T09:48:07.873Z,11.20
2023-04-11T09:50:58.560Z,11.30
2023-04-11T09:53:46.059Z,11.40
2023-04-11T09:56:34.295Z,11.50
2023-04-11T09:59:22.361Z,11.50
2023-04-11T10:02:10.656Z,11.70
2023-04-11T10:05:04.280Z,11.60
2023-04-11T10:07:57.828Z,12.00
2023-04-11T10:10:45.123Z,12.00
2023-04-11T10:13:41.970Z,12.00
2023-04-11T10:16:31.650Z,12.00
2023-04-11T10:19:27.202Z,12.20
2023-04-11T10:22:55.775Z,12.40
2023-04-11T10:25:54.055Z,12.60
2023-04-11T10:28:41.459Z,12.50
2023-04-11T10:31:27.945Z,12.80
2023-04-11T10:34:15.542Z,12.60
2023-04-11T10:37:09.611Z,11.90
2023-04-11T10:40:09.985Z,11.40
2023-04-11T10:42:57.540Z,11.30
2023-04-11T10:45:44.709Z,11.40
2023-04-11T10:48:31.915Z,11.20
2023-04-11T10:51:26.052Z,11.60
2023-04-11T10:54:27.696Z,12.00
2023-04-11T10:57:14.954Z,12.80
2023-04-11T11:00:11.058Z,12.80
2023-04-11T11:02:58.225Z,12.40
2023-04-11T11:05:44.963Z,12.00
2023-04-11T11:08:32.801Z,12.20
2023-04-11T11:11:20.847Z,12.50
2023-04-11T11:14:07.548Z,12.20
2023-04-11T11:16:54.288Z,12.10
2023-04-11T11:19:44.883Z,12.20
2023-04-11T11:22:31.859Z,12.20
2023-04-11T11:25:19.283Z,12.30
2023-04-11T11:28:09.633Z,12.60
2023-04-11T11:30:58.020Z,13.00
2023-04-11T11:33:44.519Z,13.00
2023-04-11T11:36:33.015Z,13.30
2023-04-11T11:39:22.037Z,13.70
2023-04-11T11:42:10.093Z,13.30
2023-04-11T11:45:15.798Z,12.90
2023-04-11T11:48:02.773Z,13.10
2023-04-11T11:50:56.618Z,13.60
2023-04-11T11:53:42.966Z,13.60
2023-04-11T11:56:29.593Z,13.20
2023-04-11T11:59:16.760Z,13.70
2023-04-11T12:02:05.731Z,14.10
2023-04-11T12:04:59.959Z,14.30
2023-04-11T12:07:46.887Z,14.10
2023-04-11T12:10:41.105Z,13.50
2023-04-11T12:13:28.061Z,13.40
2023-04-11T12:16:16.075Z,13.00
2023-04-11T12:19:05.494Z,12.10
2023-04-11T12:21:53.123Z,11.70
2023-04-11T12:24:39.462Z,11.70
2023-04-11T12:27:25.904Z,11.20
2023-04-11T12:30:15.168Z,11.50
2023-04-11T12:33:02.115Z,11.40
2023-04-11T12:35:50.045Z,11.20
2023-04-11T12:38:36.839Z,11.40
2023-04-11T12:41:32.255Z,11.50
2023-04-11T12:44:19.263Z,11.50
2023-04-11T12:47:05.881Z,11.70
2023-04-11T12:49:54.771Z,11.80
2023-04-11T12:52:44.054Z,12.10
2023-04-11T12:55:31.227Z,12.30
2023-04-11T12:58:18.598Z,12.70
2023-04-11T13:01:05.947Z,12.90
2023-04-11T13:03:54.388Z,13.60
2023-04-11T13:06:43.300Z,14.00
2023-04-11T13:09:32.649Z,14.10
2023-04-11T13:12:20.065Z,13.90
2023-04-11T13:15:08.170Z,14.00
2023-04-11T13:17:55.236Z,14.30
2023-04-11T13:20:42.601Z,13.80
2023-04-11T13:23:30.515Z,13.60
2023-04-11T13:26:19.927Z,13.50
2023-04-11T13:29:08.133Z,14.30
2023-04-11T13:31:55.984Z,14.80
2023-04-11T13:34:42.846Z,15.10
2023-04-11T13:37:29.343Z,15.20
2023-04-11T13:40:16.232Z,15.30
2023-04-11T13:43:05.656Z,14.40
2023-04-11T13:45:53.207Z,14.60
2023-04-11T13:48:40.746Z,14.90
2023-04-11T13:51:28.255Z,14.30
2023-04-11T13:54:16.155Z,14.10
2023-04-11T13:57:07.823Z,13.80
2023-04-11T13:59:57.693Z,13.40
2023-04-11T14:02:44.768Z,13.20
2023-04-11T14:05:35.762Z,13.10
2023-04-11T14:08:24.116Z,13.20
2023-04-11T14:11:11.813Z,13.10
2023-04-11T14:13:59.161Z,13.80
2023-04-11T14:16:47.171Z,14.00
2023-04-11T14:19:36.004Z,13.70
2023-04-11T14:22:23.574Z,13.90
2023-04-11T14:25:13.589Z,14.10
2023-04-11T14:28:00.752Z,14.50
2023-04-11T14:30:47.725Z,14.00
2023-04-11T14:33:35.818Z,14.20
2023-04-11T14:36:26.318Z,13.70
2023-04-11T14:39:12.759Z,14.10
2023-04-11T14:42:01.975Z,14.30
2023-04-11T14:44:50.305Z,13.90
2023-04-11T14:47:37.024Z,13.60
2023-04-11T14:50:26.990Z,13.10
2023-04-11T14:53:14.335Z,13.90
2023-04-11T14:56:00.734Z,13.80
2023-04-11T14:58:47.318Z,14.00
2023-04-11T15:01:34.200Z,14.00
2023-04-11T15:04:21.173Z,13.80
2023-04-11T15:07:09.332Z,13.50
2023-04-11T15:09:56.043Z,13.60
2023-04-11T15:12:42.951Z,13.80
2023-04-11T15:15:29.470Z,13.90
2023-04-11T15:18:20.434Z,14.20
2023-04-11T15:21:07.495Z,14.60
2023-04-11T15:23:56.317Z,14.20
2023-04-11T15:26:44.636Z,14.00
2023-04-11T15:29:31.117Z,13.60
2023-04-11T15:32:17.886Z,13.70
2023-04-11T15:35:04.404Z,13.40
2023-04-11T15:37:51.037Z,13.40
2023-04-11T15:40:39.125Z,13.60
2023-04-11T15:43:27.362Z,13.50
2023-04-11T15:46:14.068Z,13.50
2023-04-11T15:49:00.940Z,13.80
2023-04-11T15:51:47.518Z,14.20
2023-04-11T15:54:34.337Z,14.40
2023-04-11T15:57:22.262Z,14.60
2023-04-11T16:00:10.087Z,14.40
2023-04-11T16:03:02.811Z,14.50
2023-04-11T16:05:52.944Z,15.00
2023-04-11T16:08:39.673Z,15.10
2023-04-11T16:11:26.375Z,15.10
2023-04-11T16:14:14.311Z,15.20
2023-04-11T16:17:01.128Z,15.10
2023-04-11T16:19:47.665Z,15.30
2023-04-11T16:22:34.667Z,14.90
2023-04-11T16:25:21.894Z,15.30
2023-04-11T16:28:08.579Z,15.40
2023-04-11T16:30:57.013Z,15.60
2023-04-11T16:33:44.871Z,15.60
2023-04-11T16:36:31.288Z,15.10
2023-04-11T16:39:17.756Z,15.40
2023-04-11T16:42:04.352Z,15.40
2023-04-11T16:44:50.774Z,14.80
2023-04-11T16:47:38.646Z,15.30
2023-04-11T16:50:26.041Z,15.50
2023-04-11T16:53:12.493Z,15.60
2023-04-11T16:55:58.833Z,15.90
2023-04-11T16:58:45.679Z,15.80
2023-04-11T17:01:32.731Z,16.10
2023-04-11T17:04:21.155Z,16.00
2023-04-11T17:07:07.967Z,15.90
2023-04-11T17:09:54.831Z,16.10
2023-04-11T17:12:41.257Z,16.30
2023-04-11T17:15:28.008Z,16.10
2023-04-11T17:18:15.176Z,16.00
2023-04-11T17:21:03.228Z,16.00
2023-04-11T17:23:50.692Z,16.20
2023-04-11T17:26:37.541Z,16.30
2023-04-11T17:29:24.092Z,16.10
2023-04-11T17:32:10.521Z,15.70
2023-04-11T17:34:57.009Z,16.10
2023-04-11T17:37:44.654Z,15.90
2023-04-11T17:40:31.941Z,15.50
2023-04-11T17:43:18.488Z,15.30
2023-04-11T17:46:05.123Z,15.10
2023-04-11T17:48:51.940Z,15.00
2023-04-11T17:51:43.050Z,14.80
2023-04-11T17:54:37.022Z,14.70
2023-04-11T17:57:23.859Z,14.50
2023-04-11T18:00:19.151Z,14.40
2023-04-11T18:03:06.111Z,14.30
2023-04-11T18:05:54.220Z,14.10
2023-04-11T18:11:32.602Z,13.80
2023-04-11T18:14:19.271Z,13.70
2023-04-11T18:17:05.720Z,13.50
2023-04-11T18:19:52.167Z,13.40
2023-04-11T18:22:40.322Z,13.20
2023-04-11T18:25:27.079Z,13.20
2023-04-11T18:28:14.883Z,13.10
2023-04-11T18:31:01.620Z,12.90
2023-04-11T18:33:48.836Z,12.80
2023-04-11T18:36:35.494Z,12.70
2023-04-11T18:39:22.146Z,12.60
2023-04-11T18:42:09.193Z,12.50
2023-04-11T18:44:58.974Z,12.40
2023-04-11T18:47:46.156Z,12.30
2023-04-11T18:50:38.621Z,12.20
2023-04-11T18:53:26.082Z,12.20
2023-04-11T18:56:12.600Z,12.10
2023-04-11T18:59:05.002Z,12.00
2023-04-11T19:01:56.057Z,11.90
2023-04-11T19:04:44.063Z,11.90
2023-04-11T19:07:31.518Z,11.80
2023-04-11T19:10:18.210Z,11.70
2023-04-11T19:13:04.628Z,11.70
2023-04-11T19:15:51.555Z,11.60
2023-04-11T19:18:39.355Z,11.50
2023-04-11T19:21:26.587Z,11.50
2023-04-11T19:24:13.234Z,11.40
2023-04-11T19:26:59.731Z,11.30
2023-04-11T19:29:46.298Z,11.20
2023-04-11T19:32:36.075Z,11.20
2023-04-11T19:35:25.182Z,11.10
2023-04-11T19:38:12.760Z,11.00
2023-04-11T19:41:09.833Z,10.90
2023-04-11T19:43:56.861Z,10.80
2023-04-11T19:46:43.924Z,10.80
2023-04-11T19:49:30.237Z,10.70
2023-04-11T19:52:18.007Z,10.60
2023-04-11T19:55:05.233Z,10.60
2023-04-11T19:57:51.675Z,10.50
2023-04-11T20:00:38.715Z,10.40
2023-04-11T20:03:25.329Z,10.40
2023-04-11T20:06:13.118Z,10.40
2023-04-11T20:09:01.128Z,10.20
2023-04-11T20:11:50.752Z,10.20
2023-04-11T20:14:38.059Z,10.10
2023-04-11T20:17:24.941Z,10.00
2023-04-11T20:20:13.338Z,10.00
2023-04-11T20:23:04.754Z,9.90
2023-04-11T20:25:52.616Z,9.90
2023-04-11T20:28:39.549Z,9.90
2023-04-11T20:31:26.464Z,9.80
2023-04-11T20:34:13.230Z,9.80
2023-04-11T20:37:01.158Z,9.70
2023-04-11T20:39:48.193Z,9.70
2023-04-11T20:42:39.988Z,9.70
2023-04-11T20:45:27.942Z,9.60
2023-04-11T20:48:14.690Z,9.60
2023-04-11T20:51:01.714Z,9.60
2023-04-11T20:53:48.630Z,9.50
2023-04-11T20:56:35.506Z,9.40
2023-04-11T20:59:23.286Z,9.40
2023-04-11T21:02:10.014Z,9.30
2023-04-11T21:04:57.671Z,9.20
2023-04-11T21:07:44.089Z,9.20
2023-04-11T21:10:30.489Z,9.20
2023-04-11T21:13:17.823Z,9.10
2023-04-11T21:16:05.979Z,9.10
2023-04-11T21:18:53.074Z,9.00
2023-04-11T21:21:40.567Z,8.90
2023-04-11T21:24:27.111Z,8.90
2023-04-11T21:27:13.583Z,8.80
2023-04-11T21:29:59.927Z,8.80
2023-04-11T21:32:47.772Z,8.70
2023-04-11T21:35:34.324Z,8.70
2023-04-11T21:38:21.166Z,8.70
2023-04-11T21:41:07.984Z,8.70
2023-04-11T21:43:54.460Z,8.60
2023-04-11T21:46:41.107Z,8.60
2023-04-11T21:49:29.276Z,8.50
2023-04-11T21:52:16.153Z,8.50
2023-04-11T21:55:02.640Z,8.40
2023-04-11T21:57:49.040Z,8.40
2023-04-11T22:00:35.476Z,8.40
2023-04-11T22:03:22.094Z,8.40
2023-04-11T22:06:11.977Z,8.30
2023-04-11T22:09:01.424Z,8.30
2023-04-11T22:11:48.096Z,8.20
2023-04-11T22:14:38.224Z,8.20
2023-04-11T22:17:24.673Z,8.30
2023-04-11T22:20:12.602Z,8.30
2023-04-11T22:23:00.660Z,8.30
2023-04-11T22:25:47.116Z,8.40
2023-04-11T22:28:33.590Z,8.40
2023-04-11T22:31:20.966Z,8.40
2023-04-11T22:34:09.399Z,8.40
2023-04-11T22:36:55.861Z,8.40
2023-04-11T22:39:43.801Z,8.40
2023-04-11T22:42:30.836Z,8.40
2023-04-11T22:45:17.630Z,8.40
2023-04-11T22:48:04.700Z,8.40
2023-04-11T22:50:52.979Z,8.40
2023-04-11T22:53:42.204Z,8.40
2023-04-11T22:56:30.469Z,8.30
2023-04-11T22:59:17.019Z,8.30
2023-04-11T23:02:03.522Z,8.20
2023-04-11T23:04:50.473Z,8.20
2023-04-11T23:07:37.334Z,8.20
2023-04-11T23:10:23.947Z,8.20
2023-04-11T23:13:12.681Z,8.20
2023-04-11T23:16:01.521Z,8.10
2023-04-11T23:18:47.887Z,8.10
2023-04-11T23:21:34.246Z,8.00
2023-04-11T23:24:21.024Z,8.10
2023-04-11T23:27:08.546Z,8.10
2023-04-11T23:29:57.849Z,8.10
2023-04-11T23:32:44.328Z,8.10
2023-04-11T23:35:31.641Z,8.10
2023-04-11T23:38:18.451Z,8.10
2023-04-11T23:41:05.157Z,8.10
2023-04-11T23:43:51.371Z,8.10
2023-04-11T23:46:39.290Z,8.10
2023-04-11T23:49:26.721Z,8.10
2023-04-11T23:52:14.114Z,8.10
2023-04-11T23:55:00.984Z,8.10
2023-04-11T23:57:47.870Z,8.10
